sensor_id;sensor_type;location;lat;lon;timestamp;temperature;humidity
8248;DHT22;4164;49.844;8.830;2022-11-25T00:00:00;4.20;99.90
8248;DHT22;4164;49.844;8.830;2022-11-25T00:02:26;4.20;99.90
8248;DHT22;4164;49.844;8.830;2022-11-25T00:04:51;4.10;99.90
8248;DHT22;4164;49.844;8.830;2022-11-25T00:07:17;4.00;99.90
8248;DHT22;4164;49.844;8.830;2022-11-25T00:09:42;4.00;99.90
8248;DHT22;4164;49.844;8.830;2022-11-25T00:12:08;4.00;99.90
8248;DHT22;4164;49.844;8.830;2022-11-25T00:14:33;4.00;99.90
8248;DHT22;4164;49.844;8.830;2022-11-25T00:16:59;4.10;99.90
8248;DHT22;4164;49.844;8.830;2022-11-25T00:19:24;4.00;99.90
8248;DHT22;4164;49.844;8.830;2022-11-25T00:21:50;4.00;99.90
8248;DHT22;4164;49.844;8.830;2022-11-25T00:24:16;4.00;99.90
8248;DHT22;4164;49.844;8.830;2022-11-25T00:26:41;4.00;99.90
8248;DHT22;4164;49.844;8.830;2022-11-25T00:29:10;4.00;99.90
8248;DHT22;4164;49.844;8.830;2022-11-25T00:31:37;4.00;99.90
8248;DHT22;4164;49.844;8.830;2022-11-25T00:34:03;4.00;99.90
8248;DHT22;4164;49.844;8.830;2022-11-25T00:36:31;4.20;99.90
8248;DHT22;4164;49.844;8.830;2022-11-25T00:38:58;4.20;99.90
8248;DHT22;4164;49.844;8.830;2022-11-25T00:41:25;4.30;99.90
8248;DHT22;4164;49.844;8.830;2022-11-25T00:44:11;4.40;99.90
8248;DHT22;4164;49.844;8.830;2022-11-25T00:46:55;4.40;99.90
8248;DHT22;4164;49.844;8.830;2022-11-25T00:49:21;4.20;99.90
8248;DHT22;4164;49.844;8.830;2022-11-25T00:51:46;4.10;99.90
8248;DHT22;4164;49.844;8.830;2022-11-25T00:54:12;4.20;99.90
8248;DHT22;4164;49.844;8.830;2022-11-25T00:56:37;4.10;99.90
8248;DHT22;4164;49.844;8.830;2022-11-25T00:59:03;4.20;99.90
8248;DHT22;4164;49.844;8.830;2022-11-25T01:01:29;4.20;99.90
8248;DHT22;4164;49.844;8.830;2022-11-25T01:03:54;4.20;99.90
8248;DHT22;4164;49.844;8.830;2022-11-25T01:06:20;4.20;99.90
8248;DHT22;4164;49.844;8.830;2022-11-25T01:08:46;4.00;99.90
8248;DHT22;4164;49.844;8.830;2022-11-25T01:11:15;4.10;99.90
8248;DHT22;4164;49.844;8.830;2022-11-25T01:13:41;4.10;99.90
8248;DHT22;4164;49.844;8.830;2022-11-25T01:16:09;4.20;99.90
8248;DHT22;4164;49.844;8.830;2022-11-25T01:18:35;4.10;99.90
8248;DHT22;4164;49.844;8.830;2022-11-25T01:21:08;4.30;99.90
8248;DHT22;4164;49.844;8.830;2022-11-25T01:23:34;4.30;99.90
8248;DHT22;4164;49.844;8.830;2022-11-25T01:26:05;4.30;99.90
8248;DHT22;4164;49.844;8.830;2022-11-25T01:28:31;4.30;99.90
8248;DHT22;4164;49.844;8.830;2022-11-25T01:33:30;4.20;99.90
8248;DHT22;4164;49.844;8.830;2022-11-25T01:36:07;4.30;99.90
8248;DHT22;4164;49.844;8.830;2022-11-25T01:38:33;4.20;99.90
8248;DHT22;4164;49.844;8.830;2022-11-25T01:41:00;4.10;99.90
8248;DHT22;4164;49.844;8.830;2022-11-25T01:43:26;4.20;99.90
8248;DHT22;4164;49.844;8.830;2022-11-25T01:45:54;4.30;99.90
8248;DHT22;4164;49.844;8.830;2022-11-25T01:48:42;4.30;99.90
8248;DHT22;4164;49.844;8.830;2022-11-25T01:51:27;4.20;99.90
8248;DHT22;4164;49.844;8.830;2022-11-25T01:53:56;4.20;99.90
8248;DHT22;4164;49.844;8.830;2022-11-25T01:56:25;4.20;99.90
8248;DHT22;4164;49.844;8.830;2022-11-25T01:58:51;5.00;99.90
8248;DHT22;4164;49.844;8.830;2022-11-25T02:01:17;5.20;99.90
8248;DHT22;4164;49.844;8.830;2022-11-25T02:03:46;4.30;99.90
8248;DHT22;4164;49.844;8.830;2022-11-25T02:06:18;4.40;99.90
8248;DHT22;4164;49.844;8.830;2022-11-25T02:08:47;4.60;99.90
8248;DHT22;4164;49.844;8.830;2022-11-25T02:11:15;4.60;99.90
8248;DHT22;4164;49.844;8.830;2022-11-25T02:13:44;5.00;99.90
8248;DHT22;4164;49.844;8.830;2022-11-25T02:16:11;4.90;99.90
8248;DHT22;4164;49.844;8.830;2022-11-25T02:18:37;4.80;99.90
8248;DHT22;4164;49.844;8.830;2022-11-25T02:21:03;4.80;99.90
8248;DHT22;4164;49.844;8.830;2022-11-25T02:23:51;4.70;99.90
8248;DHT22;4164;49.844;8.830;2022-11-25T02:26:18;4.80;99.90
8248;DHT22;4164;49.844;8.830;2022-11-25T02:28:45;4.70;99.90
8248;DHT22;4164;49.844;8.830;2022-11-25T02:31:11;4.50;99.90
8248;DHT22;4164;49.844;8.830;2022-11-25T02:33:37;4.40;99.90
8248;DHT22;4164;49.844;8.830;2022-11-25T02:36:11;4.50;99.90
8248;DHT22;4164;49.844;8.830;2022-11-25T02:38:47;4.50;99.90
8248;DHT22;4164;49.844;8.830;2022-11-25T02:41:20;4.60;99.90
8248;DHT22;4164;49.844;8.830;2022-11-25T02:43:47;4.60;99.90
8248;DHT22;4164;49.844;8.830;2022-11-25T02:46:18;4.70;99.90
8248;DHT22;4164;49.844;8.830;2022-11-25T02:48:44;4.70;99.90
8248;DHT22;4164;49.844;8.830;2022-11-25T02:51:12;4.70;99.90
8248;DHT22;4164;49.844;8.830;2022-11-25T02:53:39;4.80;99.90
8248;DHT22;4164;49.844;8.830;2022-11-25T02:56:05;4.80;99.90
8248;DHT22;4164;49.844;8.830;2022-11-25T02:58:30;4.70;99.90
8248;DHT22;4164;49.844;8.830;2022-11-25T03:00:56;4.70;99.90
8248;DHT22;4164;49.844;8.830;2022-11-25T03:03:22;4.70;99.90
8248;DHT22;4164;49.844;8.830;2022-11-25T03:05:47;4.90;99.90
8248;DHT22;4164;49.844;8.830;2022-11-25T03:08:13;4.80;99.90
8248;DHT22;4164;49.844;8.830;2022-11-25T03:10:40;4.80;99.90
8248;DHT22;4164;49.844;8.830;2022-11-25T03:13:06;4.80;99.90
8248;DHT22;4164;49.844;8.830;2022-11-25T03:15:32;4.80;99.90
8248;DHT22;4164;49.844;8.830;2022-11-25T03:17:58;4.80;99.90
8248;DHT22;4164;49.844;8.830;2022-11-25T03:20:24;4.70;99.90
8248;DHT22;4164;49.844;8.830;2022-11-25T03:22:49;4.60;99.90
8248;DHT22;4164;49.844;8.830;2022-11-25T03:25:15;4.30;99.90
8248;DHT22;4164;49.844;8.830;2022-11-25T03:27:41;4.20;99.90
8248;DHT22;4164;49.844;8.830;2022-11-25T03:30:12;4.30;99.90
8248;DHT22;4164;49.844;8.830;2022-11-25T03:32:38;4.40;99.90
8248;DHT22;4164;49.844;8.830;2022-11-25T03:35:04;4.40;99.90
8248;DHT22;4164;49.844;8.830;2022-11-25T03:37:30;4.50;99.90
8248;DHT22;4164;49.844;8.830;2022-11-25T03:39:57;4.40;99.90
8248;DHT22;4164;49.844;8.830;2022-11-25T03:42:22;4.30;99.90
8248;DHT22;4164;49.844;8.830;2022-11-25T03:44:48;4.20;99.90
8248;DHT22;4164;49.844;8.830;2022-11-25T03:47:13;4.30;99.90
8248;DHT22;4164;49.844;8.830;2022-11-25T03:49:39;4.50;99.90
8248;DHT22;4164;49.844;8.830;2022-11-25T03:52:05;4.50;99.90
8248;DHT22;4164;49.844;8.830;2022-11-25T03:54:30;4.60;99.90
8248;DHT22;4164;49.844;8.830;2022-11-25T03:56:56;4.50;99.90
8248;DHT22;4164;49.844;8.830;2022-11-25T03:59:21;4.60;99.90
8248;DHT22;4164;49.844;8.830;2022-11-25T04:01:47;4.80;99.90
8248;DHT22;4164;49.844;8.830;2022-11-25T04:04:13;4.80;99.90
8248;DHT22;4164;49.844;8.830;2022-11-25T04:06:38;5.00;99.90
8248;DHT22;4164;49.844;8.830;2022-11-25T04:09:05;5.20;99.90
8248;DHT22;4164;49.844;8.830;2022-11-25T04:11:31;5.50;99.90
8248;DHT22;4164;49.844;8.830;2022-11-25T04:14:15;5.60;99.90
8248;DHT22;4164;49.844;8.830;2022-11-25T04:16:40;5.80;99.90
8248;DHT22;4164;49.844;8.830;2022-11-25T04:19:06;5.90;99.90
8248;DHT22;4164;49.844;8.830;2022-11-25T04:21:32;6.00;99.90
8248;DHT22;4164;49.844;8.830;2022-11-25T04:23:57;6.10;99.90
8248;DHT22;4164;49.844;8.830;2022-11-25T04:26:23;6.20;99.90
8248;DHT22;4164;49.844;8.830;2022-11-25T04:28:48;6.30;99.90
8248;DHT22;4164;49.844;8.830;2022-11-25T04:31:14;6.30;99.90
8248;DHT22;4164;49.844;8.830;2022-11-25T04:33:39;6.30;99.90
8248;DHT22;4164;49.844;8.830;2022-11-25T04:36:05;6.90;99.90
8248;DHT22;4164;49.844;8.830;2022-11-25T04:38:31;6.40;99.90
8248;DHT22;4164;49.844;8.830;2022-11-25T04:40:57;6.50;99.90
8248;DHT22;4164;49.844;8.830;2022-11-25T04:43:22;6.60;99.90
8248;DHT22;4164;49.844;8.830;2022-11-25T04:45:49;6.60;99.90
8248;DHT22;4164;49.844;8.830;2022-11-25T04:48:14;6.20;99.90
8248;DHT22;4164;49.844;8.830;2022-11-25T04:50:40;6.00;99.90
8248;DHT22;4164;49.844;8.830;2022-11-25T04:53:06;5.80;99.90
8248;DHT22;4164;49.844;8.830;2022-11-25T04:55:31;5.70;99.90
8248;DHT22;4164;49.844;8.830;2022-11-25T04:57:57;5.70;99.90
8248;DHT22;4164;49.844;8.830;2022-11-25T05:00:22;5.50;99.90
8248;DHT22;4164;49.844;8.830;2022-11-25T05:02:48;5.50;99.90
8248;DHT22;4164;49.844;8.830;2022-11-25T05:05:14;5.30;99.90
8248;DHT22;4164;49.844;8.830;2022-11-25T05:07:39;5.10;99.90
8248;DHT22;4164;49.844;8.830;2022-11-25T05:10:06;5.10;99.90
8248;DHT22;4164;49.844;8.830;2022-11-25T05:12:32;5.00;99.90
8248;DHT22;4164;49.844;8.830;2022-11-25T05:14:57;5.10;99.90
8248;DHT22;4164;49.844;8.830;2022-11-25T05:17:25;5.10;99.90
8248;DHT22;4164;49.844;8.830;2022-11-25T05:19:51;5.10;99.90
8248;DHT22;4164;49.844;8.830;2022-11-25T05:22:23;5.20;99.90
8248;DHT22;4164;49.844;8.830;2022-11-25T05:24:49;5.10;99.90
8248;DHT22;4164;49.844;8.830;2022-11-25T05:27:15;5.10;99.90
8248;DHT22;4164;49.844;8.830;2022-11-25T05:29:40;5.10;99.90
8248;DHT22;4164;49.844;8.830;2022-11-25T05:32:06;5.10;99.90
8248;DHT22;4164;49.844;8.830;2022-11-25T05:34:32;5.20;99.90
8248;DHT22;4164;49.844;8.830;2022-11-25T05:36:57;5.40;99.90
8248;DHT22;4164;49.844;8.830;2022-11-25T05:39:23;5.60;99.90
8248;DHT22;4164;49.844;8.830;2022-11-25T05:41:49;5.80;99.90
8248;DHT22;4164;49.844;8.830;2022-11-25T05:44:15;5.90;99.90
8248;DHT22;4164;49.844;8.830;2022-11-25T05:46:43;6.00;99.90
8248;DHT22;4164;49.844;8.830;2022-11-25T05:49:11;6.20;99.90
8248;DHT22;4164;49.844;8.830;2022-11-25T05:51:37;6.30;99.90
8248;DHT22;4164;49.844;8.830;2022-11-25T05:54:05;6.30;99.90
8248;DHT22;4164;49.844;8.830;2022-11-25T05:56:31;6.30;99.90
8248;DHT22;4164;49.844;8.830;2022-11-25T05:59:00;6.20;99.90
8248;DHT22;4164;49.844;8.830;2022-11-25T06:01:25;6.10;99.90
8248;DHT22;4164;49.844;8.830;2022-11-25T06:03:51;6.00;99.90
8248;DHT22;4164;49.844;8.830;2022-11-25T06:06:17;6.10;99.90
8248;DHT22;4164;49.844;8.830;2022-11-25T06:08:43;6.00;99.90
8248;DHT22;4164;49.844;8.830;2022-11-25T06:11:11;6.00;99.90
8248;DHT22;4164;49.844;8.830;2022-11-25T06:13:38;6.00;99.90
8248;DHT22;4164;49.844;8.830;2022-11-25T06:16:09;6.00;99.90
8248;DHT22;4164;49.844;8.830;2022-11-25T06:18:36;5.90;99.90
8248;DHT22;4164;49.844;8.830;2022-11-25T06:21:03;5.90;99.90
8248;DHT22;4164;49.844;8.830;2022-11-25T06:23:29;5.90;99.90
8248;DHT22;4164;49.844;8.830;2022-11-25T06:25:54;5.90;99.90
8248;DHT22;4164;49.844;8.830;2022-11-25T06:28:26;6.00;99.90
8248;DHT22;4164;49.844;8.830;2022-11-25T06:30:52;6.00;99.90
8248;DHT22;4164;49.844;8.830;2022-11-25T06:33:17;6.10;99.90
8248;DHT22;4164;49.844;8.830;2022-11-25T06:35:43;6.20;99.90
8248;DHT22;4164;49.844;8.830;2022-11-25T06:38:08;6.20;99.90
8248;DHT22;4164;49.844;8.830;2022-11-25T06:40:34;6.10;99.90
8248;DHT22;4164;49.844;8.830;2022-11-25T06:43:00;6.30;99.90
8248;DHT22;4164;49.844;8.830;2022-11-25T06:45:25;6.30;99.90
8248;DHT22;4164;49.844;8.830;2022-11-25T06:47:51;6.30;99.90
8248;DHT22;4164;49.844;8.830;2022-11-25T06:50:16;6.40;99.90
8248;DHT22;4164;49.844;8.830;2022-11-25T06:52:42;6.50;99.90
8248;DHT22;4164;49.844;8.830;2022-11-25T06:55:08;6.70;99.90
8248;DHT22;4164;49.844;8.830;2022-11-25T06:57:33;6.60;99.90
8248;DHT22;4164;49.844;8.830;2022-11-25T06:59:59;6.60;99.90
8248;DHT22;4164;49.844;8.830;2022-11-25T07:02:24;6.50;99.90
8248;DHT22;4164;49.844;8.830;2022-11-25T07:04:50;6.60;99.90
8248;DHT22;4164;49.844;8.830;2022-11-25T07:07:15;6.60;99.90
8248;DHT22;4164;49.844;8.830;2022-11-25T07:09:41;6.40;99.90
8248;DHT22;4164;49.844;8.830;2022-11-25T07:12:07;6.50;99.90
8248;DHT22;4164;49.844;8.830;2022-11-25T07:14:32;6.50;99.90
8248;DHT22;4164;49.844;8.830;2022-11-25T07:16:58;6.50;99.90
8248;DHT22;4164;49.844;8.830;2022-11-25T07:19:23;6.30;99.90
8248;DHT22;4164;49.844;8.830;2022-11-25T07:21:49;6.40;99.90
8248;DHT22;4164;49.844;8.830;2022-11-25T07:24:17;6.50;99.90
8248;DHT22;4164;49.844;8.830;2022-11-25T07:26:43;6.50;99.90
8248;DHT22;4164;49.844;8.830;2022-11-25T07:29:12;6.70;99.90
8248;DHT22;4164;49.844;8.830;2022-11-25T07:31:40;6.70;99.90
8248;DHT22;4164;49.844;8.830;2022-11-25T07:34:18;6.60;99.90
8248;DHT22;4164;49.844;8.830;2022-11-25T07:36:48;6.60;99.90
8248;DHT22;4164;49.844;8.830;2022-11-25T07:39:16;6.60;99.90
8248;DHT22;4164;49.844;8.830;2022-11-25T07:41:43;6.60;99.90
8248;DHT22;4164;49.844;8.830;2022-11-25T07:44:12;6.70;99.90
8248;DHT22;4164;49.844;8.830;2022-11-25T07:46:43;6.80;99.90
8248;DHT22;4164;49.844;8.830;2022-11-25T07:49:11;7.10;99.90
8248;DHT22;4164;49.844;8.830;2022-11-25T07:51:42;7.20;99.90
8248;DHT22;4164;49.844;8.830;2022-11-25T07:54:11;7.20;99.90
8248;DHT22;4164;49.844;8.830;2022-11-25T07:56:38;7.20;99.90
8248;DHT22;4164;49.844;8.830;2022-11-25T07:59:04;7.30;99.90
8248;DHT22;4164;49.844;8.830;2022-11-25T08:01:30;7.30;99.90
8248;DHT22;4164;49.844;8.830;2022-11-25T08:03:56;7.30;99.90
8248;DHT22;4164;49.844;8.830;2022-11-25T08:06:25;7.20;99.90
8248;DHT22;4164;49.844;8.830;2022-11-25T08:08:52;7.20;99.90
8248;DHT22;4164;49.844;8.830;2022-11-25T08:11:25;7.30;99.90
8248;DHT22;4164;49.844;8.830;2022-11-25T08:13:52;7.20;99.90
8248;DHT22;4164;49.844;8.830;2022-11-25T08:16:19;7.30;99.90
8248;DHT22;4164;49.844;8.830;2022-11-25T08:18:45;7.30;99.90
8248;DHT22;4164;49.844;8.830;2022-11-25T08:21:13;7.40;99.90
8248;DHT22;4164;49.844;8.830;2022-11-25T08:23:40;7.50;99.90
8248;DHT22;4164;49.844;8.830;2022-11-25T08:26:14;7.60;99.90
8248;DHT22;4164;49.844;8.830;2022-11-25T08:28:41;7.60;99.90
8248;DHT22;4164;49.844;8.830;2022-11-25T08:31:12;7.80;99.90
8248;DHT22;4164;49.844;8.830;2022-11-25T08:33:38;7.90;99.90
8248;DHT22;4164;49.844;8.830;2022-11-25T08:36:05;7.90;99.90
8248;DHT22;4164;49.844;8.830;2022-11-25T08:38:31;7.90;99.90
8248;DHT22;4164;49.844;8.830;2022-11-25T08:40:57;8.00;99.90
8248;DHT22;4164;49.844;8.830;2022-11-25T08:43:24;8.20;99.90
8248;DHT22;4164;49.844;8.830;2022-11-25T08:45:50;8.20;99.90
8248;DHT22;4164;49.844;8.830;2022-11-25T08:48:17;8.40;99.90
8248;DHT22;4164;49.844;8.830;2022-11-25T08:50:47;8.50;99.90
8248;DHT22;4164;49.844;8.830;2022-11-25T08:53:13;8.80;99.90
8248;DHT22;4164;49.844;8.830;2022-11-25T08:55:40;8.90;99.90
8248;DHT22;4164;49.844;8.830;2022-11-25T08:58:06;9.00;99.90
8248;DHT22;4164;49.844;8.830;2022-11-25T09:00:38;9.10;99.90
8248;DHT22;4164;49.844;8.830;2022-11-25T09:03:03;9.40;99.90
8248;DHT22;4164;49.844;8.830;2022-11-25T09:05:29;9.50;99.90
8248;DHT22;4164;49.844;8.830;2022-11-25T09:08:04;9.40;99.90
8248;DHT22;4164;49.844;8.830;2022-11-25T09:10:30;9.30;99.90
8248;DHT22;4164;49.844;8.830;2022-11-25T09:12:56;9.40;99.90
8248;DHT22;4164;49.844;8.830;2022-11-25T09:15:22;9.40;99.90
8248;DHT22;4164;49.844;8.830;2022-11-25T09:17:47;9.50;99.90
8248;DHT22;4164;49.844;8.830;2022-11-25T09:20:13;9.50;99.90
8248;DHT22;4164;49.844;8.830;2022-11-25T09:22:38;9.60;99.90
8248;DHT22;4164;49.844;8.830;2022-11-25T09:25:04;9.60;99.90
8248;DHT22;4164;49.844;8.830;2022-11-25T09:27:31;9.30;99.90
8248;DHT22;4164;49.844;8.830;2022-11-25T09:29:56;9.40;99.90
8248;DHT22;4164;49.844;8.830;2022-11-25T09:32:22;9.40;99.90
8248;DHT22;4164;49.844;8.830;2022-11-25T09:34:47;9.30;99.90
8248;DHT22;4164;49.844;8.830;2022-11-25T09:37:13;9.30;99.90
8248;DHT22;4164;49.844;8.830;2022-11-25T09:39:38;9.30;99.90
8248;DHT22;4164;49.844;8.830;2022-11-25T09:45:23;9.20;99.90
8248;DHT22;4164;49.844;8.830;2022-11-25T09:53:45;9.00;99.90
8248;DHT22;4164;49.844;8.830;2022-11-25T10:01:44;8.60;99.90
8248;DHT22;4164;49.844;8.830;2022-11-25T10:04:35;8.60;99.90
8248;DHT22;4164;49.844;8.830;2022-11-25T10:07:02;8.80;99.90
8248;DHT22;4164;49.844;8.830;2022-11-25T10:09:33;8.80;99.90
8248;DHT22;4164;49.844;8.830;2022-11-25T10:12:10;8.90;99.90
8248;DHT22;4164;49.844;8.830;2022-11-25T10:14:47;8.80;99.90
8248;DHT22;4164;49.844;8.830;2022-11-25T10:17:52;8.60;99.90
8248;DHT22;4164;49.844;8.830;2022-11-25T10:20:34;8.70;99.90
8248;DHT22;4164;49.844;8.830;2022-11-25T10:23:04;8.80;99.90
8248;DHT22;4164;49.844;8.830;2022-11-25T10:25:43;9.00;99.90
8248;DHT22;4164;49.844;8.830;2022-11-25T10:28:19;9.00;99.90
8248;DHT22;4164;49.844;8.830;2022-11-25T10:30:49;8.90;99.90
8248;DHT22;4164;49.844;8.830;2022-11-25T10:36:04;9.10;99.90
8248;DHT22;4164;49.844;8.830;2022-11-25T10:38:41;9.30;99.90
8248;DHT22;4164;49.844;8.830;2022-11-25T10:41:15;9.30;99.90
8248;DHT22;4164;49.844;8.830;2022-11-25T10:43:42;9.50;99.90
8248;DHT22;4164;49.844;8.830;2022-11-25T10:46:22;9.50;99.90
8248;DHT22;4164;49.844;8.830;2022-11-25T10:48:59;9.40;99.90
8248;DHT22;4164;49.844;8.830;2022-11-25T10:51:30;9.40;99.90
8248;DHT22;4164;49.844;8.830;2022-11-25T10:54:21;9.60;99.90
8248;DHT22;4164;49.844;8.830;2022-11-25T10:56:50;9.60;99.90
8248;DHT22;4164;49.844;8.830;2022-11-25T10:59:37;9.50;99.90
8248;DHT22;4164;49.844;8.830;2022-11-25T11:02:17;9.50;99.90
8248;DHT22;4164;49.844;8.830;2022-11-25T11:07:15;9.60;99.90
8248;DHT22;4164;49.844;8.830;2022-11-25T11:09:41;9.60;99.90
8248;DHT22;4164;49.844;8.830;2022-11-25T11:12:26;9.60;99.90
8248;DHT22;4164;49.844;8.830;2022-11-25T11:14:53;10.00;99.90
8248;DHT22;4164;49.844;8.830;2022-11-25T11:17:38;10.90;99.90
8248;DHT22;4164;49.844;8.830;2022-11-25T11:22:33;11.70;99.90
8248;DHT22;4164;49.844;8.830;2022-11-25T11:25:08;13.10;99.90
8248;DHT22;4164;49.844;8.830;2022-11-25T11:27:37;13.10;99.90
8248;DHT22;4164;49.844;8.830;2022-11-25T11:30:24;11.90;99.90
8248;DHT22;4164;49.844;8.830;2022-11-25T11:41:38;12.20;99.90
8248;DHT22;4164;49.844;8.830;2022-11-25T11:47:13;13.10;99.90
8248;DHT22;4164;49.844;8.830;2022-11-25T11:55:12;14.70;99.90
8248;DHT22;4164;49.844;8.830;2022-11-25T12:00:28;14.10;99.90
8248;DHT22;4164;49.844;8.830;2022-11-25T12:05:38;16.70;99.90
8248;DHT22;4164;49.844;8.830;2022-11-25T12:08:17;14.60;99.90
8248;DHT22;4164;49.844;8.830;2022-11-25T12:10:52;12.80;99.90
8248;DHT22;4164;49.844;8.830;2022-11-25T12:16:44;12.00;99.90
8248;DHT22;4164;49.844;8.830;2022-11-25T12:19:43;11.70;99.90
8248;DHT22;4164;49.844;8.830;2022-11-25T12:22:25;11.50;99.90
8248;DHT22;4164;49.844;8.830;2022-11-25T12:38:36;11.00;99.90
8248;DHT22;4164;49.844;8.830;2022-11-25T12:41:27;10.90;99.90
8248;DHT22;4164;49.844;8.830;2022-11-25T12:44:05;10.60;99.90
8248;DHT22;4164;49.844;8.830;2022-11-25T12:46:39;10.60;99.90
8248;DHT22;4164;49.844;8.830;2022-11-25T12:49:30;10.50;99.90
8248;DHT22;4164;49.844;8.830;2022-11-25T13:07:23;10.20;99.90
8248;DHT22;4164;49.844;8.830;2022-11-25T13:13:05;10.30;99.90
8248;DHT22;4164;49.844;8.830;2022-11-25T13:15:41;10.30;99.90
8248;DHT22;4164;49.844;8.830;2022-11-25T13:18:14;10.40;99.90
8248;DHT22;4164;49.844;8.830;2022-11-25T13:20:53;10.40;99.90
8248;DHT22;4164;49.844;8.830;2022-11-25T13:23:25;10.40;99.90
8248;DHT22;4164;49.844;8.830;2022-11-25T13:25:52;10.60;99.90
8248;DHT22;4164;49.844;8.830;2022-11-25T13:28:31;10.60;99.90
8248;DHT22;4164;49.844;8.830;2022-11-25T13:31:16;10.70;99.90
8248;DHT22;4164;49.844;8.830;2022-11-25T13:36:16;10.80;99.90
8248;DHT22;4164;49.844;8.830;2022-11-25T13:41:24;10.90;99.90
8248;DHT22;4164;49.844;8.830;2022-11-25T13:44:22;11.00;99.90
8248;DHT22;4164;49.844;8.830;2022-11-25T13:46:54;10.80;99.90
8248;DHT22;4164;49.844;8.830;2022-11-25T13:49:34;10.60;99.90
8248;DHT22;4164;49.844;8.830;2022-11-25T13:52:32;10.40;99.90
8248;DHT22;4164;49.844;8.830;2022-11-25T13:55:03;10.40;99.90
8248;DHT22;4164;49.844;8.830;2022-11-25T13:57:32;10.40;99.90
8248;DHT22;4164;49.844;8.830;2022-11-25T14:02:47;10.40;99.90
8248;DHT22;4164;49.844;8.830;2022-11-25T14:18:47;10.30;99.90
8248;DHT22;4164;49.844;8.830;2022-11-25T14:26:30;10.20;99.90
8248;DHT22;4164;49.844;8.830;2022-11-25T14:29:05;10.10;99.90
8248;DHT22;4164;49.844;8.830;2022-11-25T14:31:40;10.10;99.90
8248;DHT22;4164;49.844;8.830;2022-11-25T14:34:32;10.10;99.90
8248;DHT22;4164;49.844;8.830;2022-11-25T14:37:38;10.00;99.90
8248;DHT22;4164;49.844;8.830;2022-11-25T14:40:00;9.80;99.90
8248;DHT22;4164;49.844;8.830;2022-11-25T14:42:34;9.80;99.90
8248;DHT22;4164;49.844;8.830;2022-11-25T14:45:02;9.70;99.90
8248;DHT22;4164;49.844;8.830;2022-11-25T14:47:30;9.70;99.90
8248;DHT22;4164;49.844;8.830;2022-11-25T14:49:57;9.70;99.90
8248;DHT22;4164;49.844;8.830;2022-11-25T14:52:33;9.70;99.90
8248;DHT22;4164;49.844;8.830;2022-11-25T14:55:01;9.70;99.90
8248;DHT22;4164;49.844;8.830;2022-11-25T14:57:31;9.70;99.90
8248;DHT22;4164;49.844;8.830;2022-11-25T15:00:04;9.70;99.90
8248;DHT22;4164;49.844;8.830;2022-11-25T15:02:32;9.80;99.90
8248;DHT22;4164;49.844;8.830;2022-11-25T15:05:18;9.80;99.90
8248;DHT22;4164;49.844;8.830;2022-11-25T15:08:02;9.80;99.90
8248;DHT22;4164;49.844;8.830;2022-11-25T15:10:30;9.80;99.90
8248;DHT22;4164;49.844;8.830;2022-11-25T15:12:57;9.90;99.90
8248;DHT22;4164;49.844;8.830;2022-11-25T15:15:26;9.90;99.90
8248;DHT22;4164;49.844;8.830;2022-11-25T15:17:53;10.20;99.90
8248;DHT22;4164;49.844;8.830;2022-11-25T15:20:19;10.10;99.90
8248;DHT22;4164;49.844;8.830;2022-11-25T15:22:49;10.20;99.90
8248;DHT22;4164;49.844;8.830;2022-11-25T15:25:15;10.10;99.90
8248;DHT22;4164;49.844;8.830;2022-11-25T15:27:46;9.90;99.90
8248;DHT22;4164;49.844;8.830;2022-11-25T15:30:25;9.80;99.90
8248;DHT22;4164;49.844;8.830;2022-11-25T15:32:51;9.80;99.90
8248;DHT22;4164;49.844;8.830;2022-11-25T15:35:21;9.80;99.90
8248;DHT22;4164;49.844;8.830;2022-11-25T15:37:47;9.80;99.90
8248;DHT22;4164;49.844;8.830;2022-11-25T15:42:58;9.70;99.90
8248;DHT22;4164;49.844;8.830;2022-11-25T15:45:26;9.70;99.90
8248;DHT22;4164;49.844;8.830;2022-11-25T15:47:55;9.70;99.90
8248;DHT22;4164;49.844;8.830;2022-11-25T15:50:24;9.60;99.90
8248;DHT22;4164;49.844;8.830;2022-11-25T15:52:55;9.50;99.90
8248;DHT22;4164;49.844;8.830;2022-11-25T15:55:37;9.40;99.90
8248;DHT22;4164;49.844;8.830;2022-11-25T15:58:23;9.40;99.90
8248;DHT22;4164;49.844;8.830;2022-11-25T16:01:05;9.40;99.90
8248;DHT22;4164;49.844;8.830;2022-11-25T16:03:32;9.40;99.90
8248;DHT22;4164;49.844;8.830;2022-11-25T16:06:00;9.40;99.90
8248;DHT22;4164;49.844;8.830;2022-11-25T16:08:32;9.40;99.90
8248;DHT22;4164;49.844;8.830;2022-11-25T16:11:10;9.40;99.90
8248;DHT22;4164;49.844;8.830;2022-11-25T16:13:37;9.40;99.90
8248;DHT22;4164;49.844;8.830;2022-11-25T16:18:40;9.40;99.90
8248;DHT22;4164;49.844;8.830;2022-11-25T16:21:28;9.50;99.90
8248;DHT22;4164;49.844;8.830;2022-11-25T16:24:20;9.50;99.90
8248;DHT22;4164;49.844;8.830;2022-11-25T16:32:31;9.30;99.90
8248;DHT22;4164;49.844;8.830;2022-11-25T16:35:15;9.30;99.90
8248;DHT22;4164;49.844;8.830;2022-11-25T16:37:41;9.20;99.90
8248;DHT22;4164;49.844;8.830;2022-11-25T16:40:10;9.20;99.90
8248;DHT22;4164;49.844;8.830;2022-11-25T16:42:36;9.30;99.90
8248;DHT22;4164;49.844;8.830;2022-11-25T16:45:02;9.30;99.90
8248;DHT22;4164;49.844;8.830;2022-11-25T16:47:36;9.40;99.90
8248;DHT22;4164;49.844;8.830;2022-11-25T16:50:11;9.50;99.90
8248;DHT22;4164;49.844;8.830;2022-11-25T16:52:37;9.30;99.90
8248;DHT22;4164;49.844;8.830;2022-11-25T16:55:03;9.30;99.90
8248;DHT22;4164;49.844;8.830;2022-11-25T16:57:29;9.40;99.90
8248;DHT22;4164;49.844;8.830;2022-11-25T16:59:54;9.30;99.90
8248;DHT22;4164;49.844;8.830;2022-11-25T17:02:22;9.30;99.90
8248;DHT22;4164;49.844;8.830;2022-11-25T17:04:48;9.30;99.90
8248;DHT22;4164;49.844;8.830;2022-11-25T17:07:16;9.40;99.90
8248;DHT22;4164;49.844;8.830;2022-11-25T17:09:43;9.30;99.90
8248;DHT22;4164;49.844;8.830;2022-11-25T17:12:29;9.10;99.90
8248;DHT22;4164;49.844;8.830;2022-11-25T17:14:57;9.00;99.90
8248;DHT22;4164;49.844;8.830;2022-11-25T17:17:24;9.00;99.90
8248;DHT22;4164;49.844;8.830;2022-11-25T17:19:51;9.00;99.90
8248;DHT22;4164;49.844;8.830;2022-11-25T17:22:23;9.00;99.90
8248;DHT22;4164;49.844;8.830;2022-11-25T17:24:49;8.80;99.90
8248;DHT22;4164;49.844;8.830;2022-11-25T17:27:26;8.80;99.90
8248;DHT22;4164;49.844;8.830;2022-11-25T17:29:53;8.60;99.90
8248;DHT22;4164;49.844;8.830;2022-11-25T17:32:20;8.60;99.90
8248;DHT22;4164;49.844;8.830;2022-11-25T17:34:46;8.60;99.90
8248;DHT22;4164;49.844;8.830;2022-11-25T17:37:19;8.60;99.90
8248;DHT22;4164;49.844;8.830;2022-11-25T17:39:47;8.60;99.90
8248;DHT22;4164;49.844;8.830;2022-11-25T17:42:17;8.60;99.90
8248;DHT22;4164;49.844;8.830;2022-11-25T17:44:44;8.50;99.90
8248;DHT22;4164;49.844;8.830;2022-11-25T17:47:12;8.60;99.90
8248;DHT22;4164;49.844;8.830;2022-11-25T17:49:38;8.60;99.90
8248;DHT22;4164;49.844;8.830;2022-11-25T17:52:04;8.80;99.90
8248;DHT22;4164;49.844;8.830;2022-11-25T17:54:30;8.70;99.90
8248;DHT22;4164;49.844;8.830;2022-11-25T17:56:56;8.60;99.90
8248;DHT22;4164;49.844;8.830;2022-11-25T17:59:28;8.50;99.90
8248;DHT22;4164;49.844;8.830;2022-11-25T18:01:54;8.60;99.90
8248;DHT22;4164;49.844;8.830;2022-11-25T18:04:30;8.60;99.90
8248;DHT22;4164;49.844;8.830;2022-11-25T18:06:56;8.60;99.90
8248;DHT22;4164;49.844;8.830;2022-11-25T18:09:22;8.50;99.90
8248;DHT22;4164;49.844;8.830;2022-11-25T18:11:51;8.40;99.90
8248;DHT22;4164;49.844;8.830;2022-11-25T18:14:27;8.40;99.90
8248;DHT22;4164;49.844;8.830;2022-11-25T18:16:55;8.30;99.90
8248;DHT22;4164;49.844;8.830;2022-11-25T18:19:22;8.30;99.90
8248;DHT22;4164;49.844;8.830;2022-11-25T18:21:47;8.30;99.90
8248;DHT22;4164;49.844;8.830;2022-11-25T18:24:13;8.30;99.90
8248;DHT22;4164;49.844;8.830;2022-11-25T18:26:43;8.30;99.90
8248;DHT22;4164;49.844;8.830;2022-11-25T18:29:20;8.30;99.90
8248;DHT22;4164;49.844;8.830;2022-11-25T18:31:47;8.40;99.90